Time;durP1;ratioP1;P1;durP2;ratioP2;P2;SDS_P1;SDS_P2;PMS_P1;PMS_P2;Temp;Humidity;BMP_temperature;BMP_pressure;BME280_temperature;BME280_humidity;BME280_pressure;Samples;Min_cycle;Max_cycle;Signal;HPM_P1;HPM_P2
2022/11/27 00:01:41;;;;;;;4.95;2.97;;;23.60;42.90;;;22.00;52.54;97181.16;4980170;28;20029;-49
2022/11/27 00:04:08;;;;;;;4.75;2.40;;;23.60;42.90;;;22.00;52.84;97189.22;4979632;28;20033;-44
2022/11/27 00:06:34;;;;;;;3.80;2.13;;;23.60;42.70;;;22.00;53.07;97186.53;4980623;28;20564;-43
2022/11/27 00:09:11;;;;;;;3.72;2.35;;;23.60;42.60;;;22.00;51.71;97180.34;4979100;28;20029;-44
2022/11/27 00:11:39;;;;;;;5.60;2.35;;;23.60;42.70;;;22.00;52.81;97185.72;4979630;28;20041;-45
2022/11/27 00:14:06;;;;;;;3.20;2.50;;;23.50;42.70;;;22.00;52.50;97191.06;4936188;28;20288;-46
2022/11/27 00:16:32;;;;;;;3.42;2.22;;;23.60;42.70;;;21.99;52.38;97195.63;4907145;28;20638;-46
2022/11/27 00:18:58;;;;;;;3.97;2.40;;;23.60;42.60;;;21.99;52.56;97190.25;4886627;28;20299;-45
2022/11/27 00:21:30;;;;;;;4.05;2.67;;;23.60;42.80;;;22.00;52.59;97186.53;4903557;28;20311;-47
2022/11/27 00:23:57;;;;;;;3.40;2.45;;;23.60;42.60;;;21.99;52.42;97190.25;4936659;28;20556;-45
2022/11/27 00:26:23;;;;;;;3.58;2.50;;;23.50;42.50;;;21.99;52.80;97186.75;4902887;28;20415;-45
2022/11/27 00:28:50;;;;;;;3.30;2.30;;;23.50;42.60;;;21.98;52.91;97182.47;4933938;28;20361;-45
2022/11/27 00:31:20;;;;;;;2.80;2.22;;;23.60;42.50;;;21.98;51.38;97177.91;4943127;28;20207;-44
2022/11/27 00:33:46;;;;;;;3.78;2.65;;;23.60;42.50;;;21.98;52.36;97185.94;4934087;28;20358;-46
2022/11/27 00:36:13;;;;;;;3.35;2.53;;;23.60;42.50;;;21.97;52.17;97181.63;4937054;28;20615;-44
2022/11/27 00:38:39;;;;;;;3.30;2.42;;;23.60;42.50;;;21.96;51.83;97174.66;4933554;28;20389;-44
2022/11/27 00:41:14;;;;;;;3.83;2.38;;;23.60;42.50;;;21.96;52.00;97163.13;4917236;28;20331;-45
2022/11/27 00:43:40;;;;;;;3.50;2.17;;;23.60;42.40;;;21.95;51.77;97151.59;4932493;28;20560;-47
2022/11/27 00:46:05;;;;;;;3.58;2.40;;;23.50;42.50;;;21.95;52.08;97146.22;4935244;28;20386;-46
2022/11/27 00:48:32;;;;;;;4.70;2.03;;;23.60;42.40;;;21.95;52.70;97143.56;4921383;28;20519;-45
2022/11/27 00:51:03;;;;;;;3.47;2.35;;;23.50;42.40;;;21.96;51.53;97144.38;4921905;28;20522;-45
2022/11/27 00:53:29;;;;;;;4.07;2.13;;;23.50;42.50;;;21.96;52.45;97147.88;4904734;28;20409;-46
2022/11/27 00:55:56;;;;;;;3.05;2.30;;;23.60;42.50;;;21.96;51.97;97153.22;4921320;28;20500;-45
2022/11/27 00:58:23;;;;;;;3.05;2.33;;;23.50;42.50;;;21.96;51.77;97147.88;4908070;28;20322;-46
2022/11/27 01:01:00;;;;;;;3.08;2.10;;;23.60;42.50;;;21.97;50.93;97146.00;4923510;28;20612;-46
2022/11/27 01:03:27;;;;;;;2.85;2.00;;;23.50;42.50;;;21.96;51.91;97147.06;4892268;28;20833;-46
2022/11/27 01:05:53;;;;;;;4.20;2.30;;;23.50;42.50;;;21.96;52.89;97147.88;4924716;28;20438;-45
2022/11/27 01:08:19;;;;;;;5.22;2.22;;;23.50;42.40;;;21.95;51.91;97146.22;4907839;28;20815;-46
2022/11/27 01:10:55;;;;;;;2.70;2.20;;;23.50;42.40;;;21.96;50.52;97142.50;4892724;28;20579;-48
2022/11/27 01:13:30;;;;;;;3.45;2.00;;;23.50;42.50;;;21.95;51.22;97135.53;4922877;28;20363;-45
2022/11/27 01:16:08;;;;;;;3.92;2.10;;;23.50;42.50;;;21.94;50.54;97133.84;4873093;28;20573;-46
2022/11/27 01:18:35;;;;;;;2.83;1.95;;;23.50;42.40;;;21.95;51.52;97134.66;4861593;28;20371;-47
2022/11/27 01:21:01;;;;;;;2.85;1.98;;;23.60;42.40;;;21.94;51.67;97133.84;4894947;28;20382;-47
2022/11/27 01:23:27;;;;;;;5.78;2.22;;;23.60;42.50;;;21.95;52.13;97130.16;4872435;28;20030;-46
2022/11/27 01:25:53;;;;;;;4.00;2.20;;;23.50;42.50;;;21.94;52.35;97128.50;4888503;28;20572;-45
2022/11/27 01:28:21;;;;;;;2.42;2.00;;;23.50;42.50;;;21.93;52.04;97132.22;4892610;28;20568;-46
2022/11/27 01:30:46;;;;;;;3.58;2.13;;;23.50;42.50;;;21.93;51.60;97129.56;4888212;28;20353;-45
2022/11/27 01:33:12;;;;;;;4.25;2.20;;;23.50;42.40;;;21.94;52.23;97123.16;4887007;28;20834;-45
2022/11/27 01:35:38;;;;;;;2.78;2.00;;;23.60;42.50;;;21.94;51.90;97123.16;4903083;28;20364;-45
2022/11/27 01:38:04;;;;;;;2.60;1.90;;;23.50;42.50;;;21.94;52.02;97125.81;4910713;28;20595;-46
2022/11/27 01:40:31;;;;;;;3.30;2.10;;;23.50;42.50;;;21.93;51.93;97124.19;4882782;28;20370;-46
2022/11/27 01:42:57;;;;;;;3.95;2.03;;;23.50;42.50;;;21.94;51.40;97122.31;4894476;28;20715;-45
2022/11/27 01:45:23;;;;;;;3.08;2.05;;;23.60;42.50;;;21.93;51.67;97121.50;4881141;28;20365;-46
2022/11/27 01:47:56;;;;;;;2.58;1.95;;;23.60;42.40;;;21.93;50.92;97121.50;4895657;28;20395;-45
2022/11/27 01:50:34;;;;;;;3.30;2.00;;;23.50;42.40;;;21.93;50.78;97129.56;4885416;28;20549;-47
2022/11/27 01:53:07;;;;;;;5.20;2.30;;;23.50;42.40;;;21.93;50.98;97126.88;4880230;28;20405;-46
2022/11/27 01:55:42;;;;;;;2.85;2.08;;;23.50;42.40;;;21.94;50.71;97122.31;4899027;28;20473;-47
2022/11/27 01:58:11;;;;;;;3.13;1.80;;;23.50;42.40;;;21.93;50.66;97116.16;4889308;28;20368;-46
2022/11/27 02:00:37;;;;;;;2.50;2.05;;;23.50;42.40;;;21.92;51.68;97114.53;4872844;28;20514;-47
2022/11/27 02:03:03;;;;;;;3.92;2.25;;;23.50;42.40;;;21.92;51.77;97117.22;4902678;28;20550;-46
2022/11/27 02:05:29;;;;;;;2.20;1.80;;;23.50;42.40;;;21.92;51.28;97108.34;4886979;28;20517;-47
2022/11/27 02:08:00;;;;;;;3.58;2.13;;;23.50;42.50;;;21.92;50.59;97111.84;4903172;28;20414;-45
2022/11/27 02:10:52;;;;;;;3.58;2.10;;;23.50;42.40;;;21.92;50.50;97106.50;4890532;28;20833;-45
2022/11/27 02:13:42;;;;;;;2.95;1.88;;;23.50;42.50;;;21.91;50.17;97096.81;4905516;28;20528;-47
2022/11/27 02:16:27;;;;;;;2.28;1.92;;;23.50;42.50;;;21.89;50.16;97093.56;4904577;28;20360;-46
2022/11/27 02:19:18;;;;;;;2.42;1.80;;;23.50;42.50;;;21.91;50.88;97090.66;4921877;28;20443;-46
2022/11/27 02:21:52;;;;;;;3.22;1.88;;;23.50;42.40;;;21.90;51.38;97089.03;4899803;28;20456;-46
2022/11/27 02:24:53;;;;;;;2.42;1.95;;;23.50;42.40;;;21.90;50.27;97079.13;4903020;28;20730;-45
2022/11/27 02:27:34;;;;;;;2.88;1.90;;;23.50;42.40;;;21.89;50.06;97074.81;4922906;28;20374;-47
2022/11/27 02:30:00;;;;;;;2.40;1.90;;;23.50;42.40;;;21.88;52.02;97070.53;4926611;28;20419;-46
2022/11/27 02:32:38;;;;;;;2.45;1.83;;;23.50;42.40;;;21.88;49.74;97067.84;4898060;28;20565;-47
2022/11/27 02:35:37;;;;;;;3.88;2.10;;;23.50;42.40;;;21.90;50.57;97062.25;4926011;28;20425;-46
2022/11/27 02:38:39;;;;;;;2.75;2.00;;;23.50;42.40;;;21.89;49.42;97056.06;4940613;28;20299;-47
2022/11/27 02:41:21;;;;;;;3.67;2.20;;;23.50;42.40;;;21.89;50.57;97061.44;4929218;28;20736;-47
2022/11/27 02:43:48;;;;;;;2.40;1.83;;;23.50;42.40;;;21.89;51.17;97074.00;4926501;28;20527;-47
2022/11/27 02:46:15;;;;;;;2.65;1.77;;;23.50;42.50;;;21.89;51.04;97061.44;4893858;28;20706;-46
2022/11/27 02:48:49;;;;;;;2.63;1.90;;;23.50;42.40;;;21.90;50.59;97057.69;4912919;28;20675;-46
2022/11/27 02:51:22;;;;;;;2.50;2.05;;;23.50;42.40;;;21.89;50.25;97042.69;4887499;28;20359;-47
2022/11/27 02:53:55;;;;;;;3.20;2.15;;;23.50;42.50;;;21.89;50.26;97036.50;4886965;28;20343;-46
2022/11/27 02:56:24;;;;;;;2.72;1.98;;;23.50;42.40;;;21.88;50.67;97038.38;4906760;28;20339;-47
2022/11/27 02:58:50;;;;;;;2.45;1.63;;;23.50;42.40;;;21.88;50.98;97034.88;4889125;28;20696;-45
2022/11/27 03:01:16;;;;;;;3.05;2.05;;;23.50;42.40;;;21.89;50.59;97033.81;4885553;28;20554;-48
2022/11/27 03:03:45;;;;;;;3.15;2.00;;;23.50;42.40;;;21.89;50.77;97026.59;4871464;28;20287;-47
2022/11/27 03:06:16;;;;;;;2.55;1.75;;;23.50;42.40;;;21.88;51.00;97027.66;4930041;23;20081;-47
2022/11/27 03:09:08;;;;;;;3.28;1.88;;;23.50;42.40;;;21.88;51.63;97019.63;4924131;28;20201;-50
2022/11/27 03:11:34;;;;;;;2.35;2.03;;;23.50;42.40;;;21.88;50.87;97011.59;4918983;28;20057;-48
2022/11/27 03:14:03;;;;;;;2.75;1.75;;;23.50;42.30;;;21.90;50.81;97020.19;4922892;28;20026;-47
2022/11/27 03:16:49;;;;;;;2.33;1.80;;;23.50;42.30;;;21.90;49.83;97028.22;4939247;28;20038;-47
2022/11/27 03:19:54;;;;;;;2.70;1.98;;;23.50;42.20;;;21.90;49.41;97020.19;4962174;28;20552;-48
2022/11/27 03:22:20;;;;;;;2.58;1.85;;;23.50;42.10;;;21.88;50.97;97016.94;4948121;28;20164;-46
2022/11/27 03:24:48;;;;;;;2.10;1.70;;;23.50;42.00;;;21.89;50.62;97017.75;4960788;28;20041;-50
2022/11/27 03:27:18;;;;;;;2.88;1.80;;;23.50;42.00;;;21.88;49.79;97016.94;4886489;28;20368;-47
2022/11/27 03:29:55;;;;;;;2.37;1.50;;;23.50;41.90;;;21.88;49.47;97006.22;4890797;28;20335;-48
2022/11/27 03:32:21;;;;;;;2.33;1.70;;;23.50;42.00;;;21.88;50.15;97003.56;4908096;28;20215;-49
2022/11/27 03:34:47;;;;;;;2.40;1.98;;;23.50;41.90;;;21.88;50.71;97005.41;4903371;28;20270;-47
2022/11/27 03:37:14;;;;;;;2.60;1.73;;;23.50;41.80;;;21.88;50.02;97011.59;4872888;28;20729;-51
2022/11/27 03:39:40;;;;;;;2.00;1.63;;;23.50;41.80;;;21.88;50.29;96995.50;4889331;28;20470;-47
2022/11/27 03:42:46;;;;;;;2.38;1.80;;;23.50;41.80;;;21.90;48.51;96993.41;4902458;28;20215;-48
2022/11/27 03:45:50;;;;;;;2.47;1.80;;;23.50;41.80;;;21.89;49.00;96991.78;4869359;28;20491;-47
2022/11/27 03:48:34;;;;;;;2.33;1.70;;;23.50;41.70;;;21.88;49.00;96990.16;4922075;28;20346;-49
2022/11/27 03:51:36;;;;;;;3.13;1.77;;;23.50;41.80;;;21.89;48.99;96994.47;4904819;28;20427;-53
2022/11/27 03:54:14;;;;;;;1.83;1.40;;;23.50;41.70;;;21.84;49.70;96989.00;4886661;28;20556;-47
2022/11/27 03:56:55;;;;;;;4.00;1.85;;;23.50;41.80;;;21.89;48.90;96990.97;4902667;28;20223;-50
2022/11/27 03:59:51;;;;;;;;;;;;;;;;;;;;;
2022/11/27 04:02:30;;;;;;;1.90;1.60;;;23.50;42.00;;;21.89;49.10;96981.06;4892258;28;20367;-47
2022/11/27 04:04:56;;;;;;;3.13;1.63;;;23.50;42.00;;;21.88;50.74;96995.50;4901660;28;20696;-48
2022/11/27 04:07:22;;;;;;;3.40;1.65;;;23.50;42.00;;;21.89;50.20;96999.81;4889491;28;20631;-48
2022/11/27 04:09:48;;;;;;;2.50;1.52;;;23.50;42.10;;;21.90;49.86;96998.75;4874929;28;20356;-47
2022/11/27 04:12:15;;;;;;;1.75;1.50;;;23.50;42.10;;;21.90;50.04;96993.41;4884745;28;20356;-50
2022/11/27 04:14:41;;;;;;;2.47;1.52;;;23.50;42.10;;;21.91;50.57;96997.72;4880284;28;20352;-50
2022/11/27 04:17:10;;;;;;;2.72;1.90;;;23.50;42.20;;;21.92;50.05;96996.66;4899630;28;20308;-49
2022/11/27 04:19:36;;;;;;;2.30;1.50;;;23.50;42.10;;;21.95;50.49;96995.38;4894039;28;20713;-48
2022/11/27 04:22:03;;;;;;;2.30;1.50;;;23.50;42.20;;;21.98;49.91;96993.03;4881616;28;20434;-49
2022/11/27 04:24:32;;;;;;;2.05;1.55;;;23.60;42.30;;;22.01;50.35;96995.25;4882078;28;20340;-50
2022/11/27 04:27:30;;;;;;;1.98;1.58;;;23.60;42.30;;;22.06;49.13;96991.06;4899214;28;20486;-47
2022/11/27 04:29:56;;;;;;;1.80;1.40;;;23.60;42.20;;;22.06;50.28;96996.41;4880886;28;20292;-50
2022/11/27 04:32:23;;;;;;;3.17;1.80;;;23.60;42.30;;;22.09;49.68;96985.22;4906615;28;20861;-49
2022/11/27 04:34:49;;;;;;;1.67;1.40;;;23.60;42.20;;;22.10;50.24;96976.94;4888463;28;20636;-50
2022/11/27 04:37:15;;;;;;;1.77;1.40;;;23.70;42.20;;;22.13;49.81;96976.44;4873242;28;20367;-53
2022/11/27 04:39:44;;;;;;;1.90;1.50;;;23.70;42.30;;;22.13;49.80;96975.63;4889819;28;20325;-49
2022/11/27 04:42:15;;;;;;;2.53;1.50;;;23.70;42.20;;;22.16;49.80;96969.78;4910404;28;20484;-48
2022/11/27 04:44:43;;;;;;;2.00;1.40;;;23.70;42.10;;;22.17;50.36;96974.09;4917766;28;20762;-47
2022/11/27 04:47:09;;;;;;;2.15;1.50;;;23.70;42.20;;;22.18;50.07;96973.03;4890474;28;20434;-49
2022/11/27 04:49:36;;;;;;;1.77;1.45;;;23.70;42.20;;;22.19;49.39;96980.06;4921467;28;20371;-48
2022/11/27 04:52:09;;;;;;;2.03;1.48;;;23.70;42.30;;;22.18;49.36;96984.59;4907301;28;20541;-47
2022/11/27 04:54:36;;;;;;;1.92;1.38;;;23.80;42.10;;;22.20;49.34;96993.22;4922865;28;20507;-51
2022/11/27 04:57:02;;;;;;;1.80;1.30;;;23.70;42.10;;;22.19;49.19;96996.94;4894135;28;20345;-47
2022/11/27 04:59:28;;;;;;;2.17;1.50;;;23.70;42.10;;;22.21;49.31;96999.38;4891245;28;20422;-51
2022/11/27 05:01:57;;;;;;;1.73;1.38;;;23.80;42.10;;;22.21;49.42;96996.72;4893102;28;20336;-46
2022/11/27 05:04:35;;;;;;;2.50;1.42;;;23.80;42.10;;;22.22;48.82;96998.34;4886251;28;20752;-48
2022/11/27 05:07:01;;;;;;;1.60;1.40;;;23.70;42.00;;;22.20;49.61;96990.53;4884558;28;20190;-48
2022/11/27 05:09:27;;;;;;;1.50;1.20;;;23.80;42.10;;;22.20;49.48;96989.72;4924272;28;20391;-48
2022/11/27 05:11:53;;;;;;;2.50;1.40;;;23.80;42.00;;;22.19;49.42;96986.22;4909580;28;20504;-47
2022/11/27 05:14:27;;;;;;;2.22;1.30;;;23.80;42.00;;;22.19;49.31;96993.47;4910376;28;20710;-48
2022/11/27 05:16:56;;;;;;;2.15;1.50;;;23.80;42.20;;;22.19;49.69;96985.41;4926144;28;20367;-48
2022/11/27 05:19:24;;;;;;;1.92;1.33;;;23.80;42.10;;;22.18;49.97;96989.13;4889478;28;20411;-48
2022/11/27 05:21:51;;;;;;;1.52;1.17;;;23.70;42.10;;;22.18;49.43;96983.75;4889018;28;20547;-49
2022/11/27 05:24:21;;;;;;;1.80;1.20;;;23.70;42.20;;;22.19;49.44;96990.78;4904807;28;20379;-48
2022/11/27 05:26:47;;;;;;;;;;;23.80;42.00;;;22.16;49.26;96985.88;4889630;28;20288;-48
2022/11/27 05:29:13;;;;;;;1.92;1.38;;;23.80;42.20;;;22.14;50.41;96996.03;4904320;28;20243;-47
2022/11/27 05:31:40;;;;;;;2.55;1.25;;;23.80;41.90;;;22.15;49.83;97000.31;4888191;28;20446;-48
2022/11/27 05:34:06;;;;;;;1.42;1.20;;;23.80;42.00;;;22.15;50.25;97005.69;4891585;28;20368;-49
2022/11/27 05:36:32;;;;;;;2.95;1.40;;;23.70;42.00;;;22.14;49.72;96999.50;4925891;28;20296;-50
2022/11/27 05:38:59;;;;;;;2.63;1.25;;;23.70;42.00;;;22.13;49.73;96992.53;4888035;28;20467;-49
2022/11/27 05:41:26;;;;;;;1.40;1.10;;;23.80;42.10;;;22.14;49.83;96985.31;4876364;28;20699;-46
2022/11/27 05:43:52;;;;;;;2.13;1.55;;;23.70;42.00;;;22.12;49.51;96985.53;4908172;28;20337;-54
2022/11/27 05:46:20;;;;;;;3.10;1.40;;;23.70;41.90;;;22.11;48.93;96977.75;4887885;28;20303;-47
2022/11/27 05:48:46;;;;;;;1.98;1.33;;;23.70;42.00;;;22.11;49.60;96983.09;4904691;28;20379;-49
2022/11/27 05:51:17;;;;;;;1.63;1.30;;;23.70;41.90;;;22.10;49.02;96970.75;4888273;28;20371;-49
2022/11/27 05:53:44;;;;;;;1.33;0.98;;;23.60;42.00;;;22.09;49.68;96969.94;4899228;28;20288;-48
2022/11/27 05:56:15;;;;;;;2.80;1.40;;;23.60;42.00;;;22.09;49.38;96955.75;4913869;28;20480;-47
2022/11/27 05:58:42;;;;;;;2.45;1.30;;;23.70;42.00;;;22.07;49.34;96955.97;4889195;28;20440;-49
2022/11/27 06:01:12;;;;;;;3.40;1.45;;;23.60;42.20;;;22.08;49.19;96954.13;4912954;28;20327;-55
2022/11/27 06:03:38;;;;;;;1.47;1.17;;;23.60;42.20;;;22.08;49.00;96962.16;4899240;28;20874;-48
2022/11/27 06:06:24;;;;;;;1.65;1.27;;;23.60;42.00;;;22.06;49.12;96956.22;4887960;28;20386;-51
2022/11/27 06:08:50;;;;;;;1.60;1.20;;;23.60;42.00;;;22.06;49.82;96961.59;4891374;28;20490;-49
2022/11/27 06:11:20;;;;;;;1.27;1.17;;;23.60;42.10;;;22.04;49.39;96959.16;4874955;28;20579;-48
2022/11/27 06:13:47;;;;;;;1.45;1.17;;;23.50;42.10;;;22.04;49.88;96960.97;4889004;28;20457;-47
2022/11/27 06:16:18;;;;;;;1.88;1.40;;;23.60;42.20;;;22.04;49.33;96955.63;4892117;28;20561;-52
2022/11/27 06:18:44;;;;;;;1.95;1.15;;;23.50;42.20;;;22.04;49.97;96960.97;4897999;28;20433;-51
2022/11/27 06:21:12;;;;;;;1.73;1.40;;;23.50;42.10;;;22.04;49.19;96960.97;4934231;28;20677;-48
2022/11/27 06:23:46;;;;;;;1.70;1.10;;;23.60;42.10;;;22.04;48.89;96950.25;4888020;28;20451;-47
2022/11/27 06:26:16;;;;;;;2.58;1.23;;;23.60;42.10;;;22.04;49.72;96953.78;4918798;28;20359;-49
2022/11/27 06:28:43;;;;;;;2.10;1.20;;;23.60;42.00;;;22.05;49.64;96958.09;4920252;28;20363;-49
2022/11/27 06:31:28;;;;;;;3.10;1.25;;;23.60;42.00;;;22.07;49.92;96957.84;4880335;28;20356;-47
2022/11/27 06:33:55;;;;;;;1.77;1.40;;;23.60;43.30;;;22.08;51.06;96959.47;4916291;28;20343;-46
2022/11/27 06:36:22;;;;;;;1.58;1.20;;;23.60;43.60;;;22.09;51.63;96963.78;4901883;28;20321;-47
2022/11/27 06:38:51;;;;;;;1.75;1.40;;;23.60;43.70;;;22.09;51.77;96967.28;4914050;28;20584;-51
2022/11/27 06:41:19;;;;;;;3.88;1.50;;;23.60;44.00;;;22.13;52.09;96970.28;4865638;28;20329;-49
2022/11/27 06:43:46;;;;;;;4.38;1.30;;;23.60;43.60;;;22.14;51.20;96961.19;4880317;28;20414;-51
2022/11/27 06:46:17;;;;;;;3.03;1.40;;;23.60;43.50;;;22.17;50.61;96955.34;4885169;28;20352;-51
2022/11/27 06:48:45;;;;;;;3.10;1.23;;;23.70;43.50;;;22.18;51.18;96965.00;4891090;28;20415;-48
2022/11/27 06:51:13;;;;;;;3.83;1.20;;;23.70;43.50;;;22.18;51.22;96960.47;4903163;28;20576;-50
2022/11/27 06:53:39;;;;;;;2.28;1.30;;;23.70;43.40;;;22.20;50.63;96954.88;4923361;28;20310;-48
2022/11/27 06:56:07;;;;;;;2.97;1.27;;;23.70;43.30;;;22.22;50.41;96971.53;4917860;28;20564;-49
2022/11/27 06:58:34;;;;;;;2.13;1.30;;;23.70;43.30;;;22.22;51.22;96958.94;4892608;28;20350;-48
2022/11/27 07:01:05;;;;;;;2.90;1.50;;;23.70;43.30;;;22.24;50.69;96961.38;4922563;28;20332;-50
2022/11/27 07:03:31;;;;;;;2.15;1.10;;;23.70;43.20;;;22.24;50.72;96958.69;4898537;28;20331;-47
2022/11/27 07:06:01;;;;;;;1.70;1.10;;;23.70;43.30;;;22.22;50.93;96958.13;4926289;28;20282;-49
2022/11/27 07:08:28;;;;;;;3.28;1.20;;;23.70;43.30;;;22.20;50.79;96961.06;4907142;28;20410;-49
2022/11/27 07:11:00;;;;;;;1.80;1.60;;;23.70;43.10;;;22.19;50.60;96955.94;4907559;28;20307;-50
2022/11/27 07:13:28;;;;;;;2.35;1.40;;;23.70;43.20;;;22.18;50.25;96959.63;4915382;28;20489;-50
2022/11/27 07:15:54;;;;;;;1.67;1.10;;;23.70;43.10;;;22.17;51.10;96966.06;4907174;28;20446;-48
2022/11/27 07:18:20;;;;;;;1.50;1.23;;;23.70;43.10;;;22.16;50.23;96965.25;4910524;28;20423;-49
2022/11/27 07:20:53;;;;;;;3.28;1.20;;;23.60;43.00;;;22.16;50.76;96964.44;4922732;28;20367;-49
2022/11/27 07:23:19;;;;;;;3.78;1.05;;;23.70;43.00;;;22.15;50.86;96962.81;4941511;28;20376;-48
2022/11/27 07:25:45;;;;;;;2.03;1.20;;;23.70;43.00;;;22.14;50.99;96951.28;4924121;28;20411;-52
2022/11/27 07:28:15;;;;;;;3.60;1.17;;;23.70;42.90;;;22.14;50.92;96963.84;4926491;28;20427;-51
2022/11/27 07:30:41;;;;;;;4.68;1.40;;;23.60;43.00;;;22.09;50.71;96955.75;4906785;28;20520;-53
2022/11/27 07:33:07;;;;;;;3.50;1.20;;;23.70;43.00;;;22.14;50.65;96961.19;4921222;28;20361;-49
2022/11/27 07:35:33;;;;;;;3.03;1.10;;;23.70;42.90;;;22.14;50.73;96962.00;4905371;28;20323;-47
2022/11/27 07:37:59;;;;;;;2.67;1.10;;;23.70;42.90;;;22.16;51.54;96953.72;4941336;28;20367;-52
2022/11/27 07:40:25;;;;;;;3.70;1.15;;;23.60;43.20;;;22.16;50.55;96948.34;4922568;28;20354;-47
2022/11/27 07:42:52;;;;;;;2.63;1.52;;;23.70;43.30;;;22.12;47.35;96928.47;4905868;28;20463;-50
2022/11/27 07:45:18;;;;;;;5.13;2.00;;;23.60;38.90;;;22.00;45.11;96923.97;4938353;28;20247;-52
2022/11/27 07:47:44;;;;;;;2.97;1.75;;;23.40;37.70;;;21.97;44.98;96921.75;4929611;28;20610;-47
2022/11/27 07:50:11;;;;;;;4.07;1.35;;;23.40;39.30;;;22.00;45.97;96915.09;4916953;28;20608;-49
2022/11/27 07:52:40;;;;;;;4.55;1.23;;;23.50;40.00;;;22.01;46.94;96922.09;4923380;28;20640;-49
2022/11/27 07:55:06;;;;;;;2.95;1.10;;;23.50;41.10;;;22.04;48.30;96916.28;4922014;28;20478;-54
2022/11/27 07:57:32;;;;;;;2.42;1.50;;;23.60;41.50;;;22.06;48.30;96926.75;4938723;28;20331;-48
2022/11/27 07:59:58;;;;;;;4.65;1.83;;;23.60;41.70;;;22.08;48.59;96921.97;4905796;28;20564;-49
2022/11/27 08:02:25;;;;;;;2.33;1.63;;;23.60;41.90;;;22.09;49.03;96915.53;4906905;28;20371;-53
2022/11/27 08:04:51;;;;;;;1.50;1.02;;;23.60;42.00;;;22.10;48.58;96917.97;4922585;28;20317;-49
2022/11/27 08:07:17;;;;;;;2.13;1.02;;;23.60;42.20;;;22.12;49.23;96915.06;4926297;28;20826;-49
2022/11/27 08:09:44;;;;;;;6.68;1.20;;;23.60;42.10;;;22.14;49.41;96923.66;4905342;28;20538;-51
2022/11/27 08:12:10;;;;;;;1.73;1.30;;;23.60;42.30;;;22.14;49.42;96924.47;4935012;28;20251;-49
2022/11/27 08:14:36;;;;;;;2.10;1.35;;;23.70;42.40;;;22.16;49.65;96918.88;4904281;28;20801;-49
2022/11/27 08:17:02;;;;;;;3.03;1.30;;;23.70;42.40;;;22.17;49.54;96918.63;4919196;28;20328;-49
2022/11/27 08:19:29;;;;;;;3.15;1.10;;;23.70;42.30;;;22.20;49.52;96922.72;4903679;28;20456;-48
2022/11/27 08:21:56;;;;;;;2.15;0.98;;;23.70;42.30;;;22.23;49.27;96912.31;4940964;28;20320;-48
2022/11/27 08:24:22;;;;;;;2.80;1.20;;;23.80;42.40;;;22.26;49.44;96911.03;4908412;28;20503;-46
2022/11/27 08:26:49;;;;;;;1.55;1.17;;;23.80;42.50;;;22.29;49.74;96914.03;4925421;28;20431;-50
2022/11/27 08:29:17;;;;;;;2.95;1.20;;;23.80;42.40;;;22.30;50.70;96912.16;4930400;28;20348;-46
2022/11/27 08:31:43;;;;;;;1.40;1.10;;;23.80;43.10;;;22.28;50.30;96904.34;4925454;28;20360;-46
2022/11/27 08:34:10;;;;;;;5.07;1.48;;;23.80;43.60;;;22.29;50.88;96907.84;4914047;28;20363;-48
2022/11/27 08:36:36;;;;;;;3.28;1.13;;;23.70;43.70;;;22.30;51.53;96906.78;4915848;28;20616;-49
2022/11/27 08:39:12;;;;;;;3.65;1.48;;;23.70;44.50;;;22.29;50.54;96905.16;4920012;28;20352;-46
2022/11/27 08:41:57;;;;;;;3.17;1.30;;;23.70;42.80;;;22.29;49.84;96905.16;4890968;28;20339;-47
2022/11/27 08:44:23;;;;;;;6.38;2.28;;;23.70;42.70;;;22.26;49.19;96895.75;4935467;28;20322;-48
2022/11/27 08:46:49;;;;;;;2.25;1.90;;;23.70;42.80;;;22.19;46.37;96899.66;4905251;28;20556;-48
2022/11/27 08:49:15;;;;;;;5.47;1.90;;;23.60;39.20;;;22.09;44.91;96894.91;4918202;28;20407;-54
2022/11/27 08:51:41;;;;;;;2.67;2.10;;;23.50;37.50;;;22.02;42.98;96887.00;4889329;28;20681;-56
2022/11/27 08:54:10;;;;;;;2.83;2.30;;;23.30;36.20;;;21.93;41.00;96891.13;4886026;28;20571;-49
2022/11/27 08:56:39;;;;;;;3.08;2.47;;;23.20;34.60;;;21.79;40.83;96879.09;4890352;28;20366;-55
2022/11/27 08:59:08;;;;;;;2.60;1.80;;;23.10;34.10;;;21.68;40.50;96880.78;4908087;28;20328;-48
2022/11/27 09:01:34;;;;;;;4.90;1.63;;;23.10;35.70;;;21.70;41.79;96885.88;4910046;28;20770;-55
2022/11/27 09:04:00;;;;;;;2.65;1.65;;;23.20;37.40;;;21.71;41.69;96887.50;4870079;28;20288;-49
2022/11/27 09:06:30;;;;;;;2.80;1.30;;;23.30;37.70;;;21.77;42.91;96885.75;4901610;28;20339;-54
2022/11/27 09:09:02;;;;;;;3.87;1.20;;;23.40;38.70;;;21.80;44.00;96885.28;4905574;28;20358;-51
2022/11/27 09:11:30;;;;;;;3.50;1.20;;;23.40;39.20;;;21.83;44.64;96879.44;4903970;28;20480;-51
2022/11/27 09:14:00;;;;;;;2.92;1.30;;;23.40;39.60;;;21.85;45.10;96880.81;4894326;28;20350;-51
2022/11/27 09:16:27;;;;;;;1.67;1.23;;;23.40;39.70;;;21.87;45.53;96884.06;4889808;28;20360;-50
2022/11/27 09:18:54;;;;;;;3.97;1.27;;;23.40;40.00;;;21.91;45.95;96887.06;4890170;28;20336;-52
2022/11/27 09:21:21;;;;;;;2.65;1.40;;;23.50;40.40;;;21.93;46.17;96896.47;4906937;28;20279;-52
2022/11/27 09:23:51;;;;;;;1.30;1.05;;;23.50;40.40;;;21.96;46.05;96893.34;4923763;28;20372;-49
2022/11/27 09:26:17;;;;;;;2.15;1.20;;;23.50;40.40;;;22.01;46.32;96892.63;4924867;28;20340;-49
2022/11/27 09:28:44;;;;;;;1.70;1.17;;;23.60;40.60;;;22.05;46.80;96887.63;4907727;28;20335;-53
2022/11/27 09:31:13;;;;;;;2.83;1.10;;;23.60;40.70;;;22.09;46.59;96894.91;4940286;28;20705;-57
2022/11/27 09:33:39;;;;;;;1.70;1.20;;;23.70;40.70;;;22.13;47.17;96890.69;4923635;28;20261;-50
2022/11/27 09:36:15;;;;;;;1.13;0.93;;;23.70;40.90;;;22.18;46.51;96889.97;4923378;28;20507;-53
2022/11/27 09:38:41;;;;;;;1.98;1.10;;;23.70;40.80;;;22.19;47.05;96879.03;4927458;28;20544;-52
2022/11/27 09:41:25;;;;;;;1.42;0.80;;;23.80;41.00;;;22.23;47.51;96866.75;4923220;28;20556;-53
2022/11/27 09:43:58;;;;;;;1.95;1.00;;;23.70;41.00;;;22.25;46.78;96866.50;4932081;28;20489;-50
2022/11/27 09:46:34;;;;;;;2.03;1.08;;;23.80;40.90;;;22.27;46.57;96859.03;4896916;28;20305;-49
2022/11/27 09:49:02;;;;;;;2.10;1.30;;;23.80;41.00;;;22.29;47.57;96859.59;4926787;28;20496;-49
2022/11/27 09:51:42;;;;;;;2.30;1.00;;;23.80;40.90;;;22.31;47.00;96855.63;4926148;28;20066;-47
2022/11/27 09:54:32;;;;;;;2.05;1.05;;;23.80;40.90;;;22.34;46.70;96848.13;4920265;28;20378;-55
2022/11/27 09:56:58;;;;;;;1.77;1.20;;;23.80;41.00;;;22.33;47.14;96850.00;4893277;28;20313;-54
2022/11/27 09:59:38;;;;;;;2.60;1.20;;;23.90;41.10;;;22.34;47.76;96838.22;4907566;28;20310;-52
2022/11/27 10:02:21;;;;;;;1.20;1.00;;;23.80;41.20;;;22.35;46.55;96834.50;4916567;28;20371;-51
2022/11/27 10:04:47;;;;;;;1.00;0.80;;;23.90;41.10;;;22.35;47.34;96836.38;4910512;28;20505;-52
2022/11/27 10:07:28;;;;;;;1.20;1.05;;;23.90;41.10;;;22.37;47.55;96829.69;4914594;28;20655;-54
2022/11/27 10:10:04;;;;;;;1.23;0.90;;;23.90;41.20;;;22.36;47.14;96836.13;4907594;28;20457;-53
2022/11/27 10:13:11;;;;;;;1.73;0.90;;;23.90;41.20;;;22.37;47.05;96824.34;4929911;28;20955;-54
2022/11/27 10:16:19;;;;;;;1.83;1.00;;;23.90;41.10;;;22.37;46.85;96827.00;4926752;28;20359;-50
2022/11/27 10:18:58;;;;;;;0.80;0.80;;;23.90;41.10;;;22.36;47.04;96825.38;4889485;28;20315;-54
2022/11/27 10:21:59;;;;;;;1.25;0.98;;;23.90;41.20;;;22.37;46.85;96824.34;4913593;28;20354;-49
2022/11/27 10:24:35;;;;;;;1.95;0.90;;;23.90;41.30;;;22.37;47.21;96824.34;4939378;28;20556;-54
2022/11/27 10:27:15;;;;;;;1.75;1.00;;;23.90;41.20;;;22.37;47.04;96810.94;4927801;28;20599;-50
2022/11/27 10:29:54;;;;;;;1.17;1.00;;;23.80;41.10;;;22.37;46.62;96816.28;4885873;28;20372;-48
2022/11/27 10:32:27;;;;;;;1.88;0.95;;;23.80;41.20;;;22.37;47.21;96810.13;4912209;28;20406;-51
2022/11/27 10:34:58;;;;;;;1.00;0.90;;;23.80;41.20;;;22.37;47.17;96794.03;4898598;28;20794;-53
2022/11/27 10:37:32;;;;;;;0.90;0.80;;;23.80;41.30;;;22.38;47.20;96798.34;4889488;28;20327;-50